Time;durP1;ratioP1;P1;durP2;ratioP2;P2;SDS_P1;SDS_P2;PMS_P1;PMS_P2;Temp;Humidity;BMP_temperature;BMP_pressure;BME280_temperature;BME280_humidity;BME280_pressure;Samples;Min_cycle;Max_cycle;Signal;HPM_P1;HPM_P2
2023/03/26 00:01:14;;;;;;;12.35;3.75;;;;;;;;;;5086914;28;20063;-60
2023/03/26 00:03:41;;;;;;;20.02;4.43;;;;;;;;;;5085612;28;20045;-60
2023/03/26 00:06:09;;;;;;;10.77;3.40;;;;;;;;;;5085857;28;20059;-60
2023/03/26 00:08:36;;;;;;;19.58;4.13;;;;;;;;;;5074408;28;20140;-61
2023/03/26 00:11:04;;;;;;;12.48;4.05;;;;;;;;;;5086644;28;20182;-60
2023/03/26 00:13:31;;;;;;;9.82;3.50;;;;;;;;;;5052389;28;20057;-59
2023/03/26 00:15:57;;;;;;;12.15;4.43;;;;;;;;;;5046482;28;20054;-59
2023/03/26 00:18:29;;;;;;;14.38;4.50;;;;;;;;;;5046211;28;20084;-60
2023/03/26 00:20:56;;;;;;;15.18;4.45;;;;;;;;;;5083516;28;20666;-58
2023/03/26 00:23:23;;;;;;;9.05;3.85;;;;;;;;;;5084713;28;20072;-61
2023/03/26 00:25:50;;;;;;;16.23;4.78;;;;;;;;;;5087105;28;20056;-58
2023/03/26 00:28:20;;;;;;;17.27;4.50;;;;;;;;;;5086839;28;20735;-59
2023/03/26 00:30:47;;;;;;;14.00;3.33;;;;;;;;;;5084267;28;20053;-60
2023/03/26 00:33:16;;;;;;;10.63;3.65;;;;;;;;;;5086694;28;20074;-56
2023/03/26 00:35:45;;;;;;;14.57;3.65;;;;;;;;;;5084347;28;20052;-60
2023/03/26 00:38:13;;;;;;;20.75;4.93;;;;;;;;;;5085826;28;20052;-61
2023/03/26 00:40:42;;;;;;;16.77;3.58;;;;;;;;;;5062579;28;20519;-60
2023/03/26 00:43:17;;;;;;;16.05;4.25;;;;;;;;;;5045861;28;20073;-60
2023/03/26 00:45:51;;;;;;;15.90;4.18;;;;;;;;;;5084724;28;20060;-58
2023/03/26 00:48:19;;;;;;;17.47;3.30;;;;;;;;;;5086567;28;20526;-60
2023/03/26 00:50:49;;;;;;;19.67;5.38;;;;;;;;;;5080588;28;20209;-60
2023/03/26 00:53:16;;;;;;;16.05;4.18;;;;;;;;;;5083394;28;20537;-60
2023/03/26 00:55:43;;;;;;;15.88;3.33;;;;;;;;;;5085608;28;20576;-60
2023/03/26 00:58:10;;;;;;;34.83;4.80;;;;;;;;;;5085752;28;20059;-59
2023/03/26 01:00:49;;;;;;;15.77;4.18;;;;;;;;;;5081784;28;20060;-59
2023/03/26 01:03:17;;;;;;;10.88;3.42;;;;;;;;;;5082772;28;20139;-60
2023/03/26 01:05:57;;;;;;;13.23;3.97;;;;;;;;;;5085564;28;20056;-59
2023/03/26 01:08:29;;;;;;;20.05;3.58;;;;;;;;;;5076248;28;20515;-58
2023/03/26 01:11:01;;;;;;;15.75;3.50;;;;;;;;;;5081121;28;20576;-60
2023/03/26 01:13:31;;;;;;;17.00;4.03;;;;;;;;;;5084783;28;20930;-59
2023/03/26 01:16:00;;;;;;;19.27;3.95;;;;;;;;;;5086344;28;20055;-60
2023/03/26 01:18:32;;;;;;;17.35;3.78;;;;;;;;;;5081674;28;20098;-59
2023/03/26 01:21:04;;;;;;;18.98;4.35;;;;;;;;;;5045409;28;20064;-60
2023/03/26 01:24:00;;;;;;;16.60;4.38;;;;;;;;;;5049554;28;20054;-59
2023/03/26 01:26:46;;;;;;;20.08;3.72;;;;;;;;;;5071089;28;20048;-60
2023/03/26 01:29:30;;;;;;;19.83;4.57;;;;;;;;;;5083589;28;20773;-60
2023/03/26 01:31:57;;;;;;;19.10;4.53;;;;;;;;;;5086033;28;20044;-60
2023/03/26 01:34:29;;;;;;;13.35;4.60;;;;;;;;;;5081948;28;20052;-59
2023/03/26 01:37:00;;;;;;;20.35;4.13;;;;;;;;;;5079218;28;20048;-59
2023/03/26 01:39:30;;;;;;;14.05;3.58;;;;;;;;;;5052255;28;20061;-59
2023/03/26 01:41:59;;;;;;;14.05;4.50;;;;;;;;;;5045200;28;20053;-60
2023/03/26 01:44:25;;;;;;;13.57;3.42;;;;;;;;;;5066015;28;20055;-59
2023/03/26 01:46:52;;;;;;;18.83;5.47;;;;;;;;;;5082493;28;20056;-59
2023/03/26 01:49:19;;;;;;;16.88;4.68;;;;;;;;;;5083302;28;20056;-59
2023/03/26 01:51:46;;;;;;;24.67;4.78;;;;;;;;;;5085611;28;20052;-59
2023/03/26 01:54:15;;;;;;;18.50;4.13;;;;;;;;;;5084755;28;20530;-59
2023/03/26 01:56:50;;;;;;;25.17;5.38;;;;;;;;;;5080132;28;20546;-59
2023/03/26 01:59:25;;;;;;;15.73;4.15;;;;;;;;;;5083486;28;20049;-59
2023/03/26 02:01:56;;;;;;;16.38;4.75;;;;;;;;;;5084622;28;20130;-60
2023/03/26 02:04:37;;;;;;;16.95;5.63;;;;;;;;;;5065718;28;20088;-59
2023/03/26 02:07:04;;;;;;;22.02;4.43;;;;;;;;;;5072084;28;20056;-60
2023/03/26 02:09:34;;;;;;;16.80;4.20;;;;;;;;;;5085836;28;20047;-59
2023/03/26 02:12:02;;;;;;;21.45;5.38;;;;;;;;;;5085046;28;20647;-59
2023/03/26 02:14:29;;;;;;;20.40;5.30;;;;;;;;;;5085405;28;20052;-59
2023/03/26 02:16:57;;;;;;;18.55;4.32;;;;;;;;;;5069664;28;20155;-59
2023/03/26 02:19:23;;;;;;;17.17;4.72;;;;;;;;;;5085159;28;20079;-59
2023/03/26 02:21:50;;;;;;;20.10;4.40;;;;;;;;;;5084909;28;20600;-60
2023/03/26 02:24:17;;;;;;;14.80;4.60;;;;;;;;;;5081178;28;20129;-59
2023/03/26 02:26:44;;;;;;;23.98;5.05;;;;;;;;;;5083489;28;20052;-59
2023/03/26 02:29:12;;;;;;;24.95;5.60;;;;;;;;;;5085061;28;20052;-59
2023/03/26 02:31:38;;;;;;;26.63;6.00;;;;;;;;;;5071366;28;20065;-60
2023/03/26 02:34:05;;;;;;;15.80;3.97;;;;;;;;;;5064941;28;20517;-60
2023/03/26 02:36:31;;;;;;;17.48;4.20;;;;;;;;;;5065246;28;20060;-59
2023/03/26 02:38:59;;;;;;;27.00;4.22;;;;;;;;;;5085000;28;20052;-60
2023/03/26 02:41:25;;;;;;;20.98;5.43;;;;;;;;;;5084909;28;20053;-59
2023/03/26 02:43:51;;;;;;;27.83;5.60;;;;;;;;;;5082790;28;20047;-58
2023/03/26 02:46:17;;;;;;;17.00;4.57;;;;;;;;;;5081063;28;20056;-59
2023/03/26 02:48:44;;;;;;;18.55;4.55;;;;;;;;;;5084641;28;20086;-59
2023/03/26 02:51:10;;;;;;;21.02;5.05;;;;;;;;;;5082686;28;20059;-59
2023/03/26 02:53:38;;;;;;;18.10;5.80;;;;;;;;;;5084503;28;20083;-59
2023/03/26 02:56:05;;;;;;;22.13;4.80;;;;;;;;;;5081504;28;20060;-59
2023/03/26 02:58:32;;;;;;;17.83;4.95;;;;;;;;;;5080187;28;20498;-60
2023/03/26 03:01:01;;;;;;;29.70;5.95;;;;;;;;;;5043161;28;20061;-59
2023/03/26 03:03:28;;;;;;;27.15;6.00;;;;;;;;;;5047445;28;20405;-60
2023/03/26 03:05:55;;;;;;;36.10;7.85;;;;;;;;;;5049081;28;20060;-59
2023/03/26 03:08:25;;;;;;;26.52;8.00;;;;;;;;;;5084293;28;20049;-59
2023/03/26 03:10:55;;;;;;;22.83;7.38;;;;;;;;;;5054562;28;20582;-60
2023/03/26 03:13:21;;;;;;;35.00;7.65;;;;;;;;;;5086962;28;20052;-59
2023/03/26 03:15:47;;;;;;;35.67;7.35;;;;;;;;;;5085420;28;20517;-59
2023/03/26 03:18:14;;;;;;;33.25;7.55;;;;;;;;;;5047267;28;20073;-58
2023/03/26 03:20:40;;;;;;;20.02;6.55;;;;;;;;;;5047665;28;20527;-59
2023/03/26 03:23:07;;;;;;;24.13;6.95;;;;;;;;;;5047323;28;20053;-59
2023/03/26 03:25:33;;;;;;;23.42;5.30;;;;;;;;;;5045599;28;20829;-59
2023/03/26 03:27:59;;;;;;;25.38;6.60;;;;;;;;;;5050727;28;20574;-60
2023/03/26 03:30:25;;;;;;;29.05;5.88;;;;;;;;;;5047081;28;20113;-59
2023/03/26 03:32:52;;;;;;;35.78;7.80;;;;;;;;;;5047053;28;20053;-59
2023/03/26 03:35:18;;;;;;;32.28;5.57;;;;;;;;;;5065948;28;20051;-59
2023/03/26 03:37:44;;;;;;;32.67;5.57;;;;;;;;;;5084911;28;20053;-58
2023/03/26 03:40:11;;;;;;;28.58;4.93;;;;;;;;;;5087475;28;20481;-60
2023/03/26 03:42:37;;;;;;;37.08;8.02;;;;;;;;;;5086444;28;20496;-59
2023/03/26 03:45:05;;;;;;;30.13;6.60;;;;;;;;;;5085949;28;20479;-59
2023/03/26 03:47:31;;;;;;;31.95;6.15;;;;;;;;;;5084469;28;20063;-57
2023/03/26 03:49:59;;;;;;;34.72;6.88;;;;;;;;;;5085869;28;20045;-58
2023/03/26 03:52:26;;;;;;;22.45;5.45;;;;;;;;;;5088014;28;20059;-59
2023/03/26 03:54:56;;;;;;;38.97;6.53;;;;;;;;;;5081152;28;20925;-59
2023/03/26 03:57:22;;;;;;;27.98;6.60;;;;;;;;;;5076543;28;20048;-58
2023/03/26 03:59:49;;;;;;;34.40;7.60;;;;;;;;;;5086430;28;20092;-59
2023/03/26 04:02:33;;;;;;;38.28;7.72;;;;;;;;;;5087003;28;20520;-59
2023/03/26 04:05:00;;;;;;;40.95;7.88;;;;;;;;;;5087839;28;20053;-60
2023/03/26 04:07:30;;;;;;;39.17;8.77;;;;;;;;;;5084032;28;20052;-59
2023/03/26 04:09:58;;;;;;;43.00;8.90;;;;;;;;;;5078027;28;20132;-58
2023/03/26 04:12:28;;;;;;;55.30;11.68;;;;;;;;;;5086298;28;20078;-60
2023/03/26 04:14:55;;;;;;;53.03;10.63;;;;;;;;;;5085481;28;20056;-59
2023/03/26 04:17:22;;;;;;;50.20;10.30;;;;;;;;;;5082457;28;20052;-58
2023/03/26 04:19:49;;;;;;;39.47;10.25;;;;;;;;;;5086445;28;20059;-59
2023/03/26 04:22:17;;;;;;;54.75;10.73;;;;;;;;;;5085523;28;20052;-57
2023/03/26 04:24:44;;;;;;;44.40;10.65;;;;;;;;;;5046293;28;20057;-58
2023/03/26 04:27:12;;;;;;;36.78;9.52;;;;;;;;;;5064046;28;20052;-59
2023/03/26 04:29:43;;;;;;;41.88;9.77;;;;;;;;;;5086609;28;20044;-60
2023/03/26 04:32:11;;;;;;;32.55;8.75;;;;;;;;;;5085625;28;20536;-59
2023/03/26 04:34:37;;;;;;;39.15;9.95;;;;;;;;;;5086480;28;20059;-58
2023/03/26 04:37:04;;;;;;;36.90;10.52;;;;;;;;;;5083932;28;20052;-60
2023/03/26 04:39:33;;;;;;;48.10;9.65;;;;;;;;;;5086431;28;20127;-57
2023/03/26 04:41:59;;;;;;;39.20;9.45;;;;;;;;;;5086394;28;20051;-60
2023/03/26 04:44:25;;;;;;;57.63;10.85;;;;;;;;;;5083412;28;20049;-59
2023/03/26 04:46:52;;;;;;;48.30;10.40;;;;;;;;;;5084230;28;20110;-58
2023/03/26 04:49:19;;;;;;;44.10;9.90;;;;;;;;;;5085945;28;20055;-58
2023/03/26 04:51:46;;;;;;;39.38;9.68;;;;;;;;;;5070848;28;20148;-58
2023/03/26 04:54:14;;;;;;;41.60;11.77;;;;;;;;;;5066004;28;20049;-59
2023/03/26 04:56:47;;;;;;;51.42;10.70;;;;;;;;;;5074288;28;20136;-58
2023/03/26 04:59:17;;;;;;;45.10;10.63;;;;;;;;;;5075476;28;20057;-60
2023/03/26 05:01:44;;;;;;;45.42;9.75;;;;;;;;;;5064790;28;20053;-58
2023/03/26 05:04:12;;;;;;;40.92;11.40;;;;;;;;;;5065569;28;20049;-58
2023/03/26 05:06:40;;;;;;;40.13;10.05;;;;;;;;;;5066281;28;20060;-59
2023/03/26 05:09:09;;;;;;;36.80;10.23;;;;;;;;;;5086164;28;20533;-58
2023/03/26 05:11:35;;;;;;;35.75;9.43;;;;;;;;;;5085961;28;20584;-59
2023/03/26 05:14:02;;;;;;;30.75;9.82;;;;;;;;;;5084441;28;20048;-59
2023/03/26 05:16:28;;;;;;;40.55;10.20;;;;;;;;;;5075328;28;20050;-60
2023/03/26 05:18:55;;;;;;;42.97;9.95;;;;;;;;;;5070859;28;20045;-59
2023/03/26 05:21:21;;;;;;;36.83;10.15;;;;;;;;;;5051915;28;20049;-61
2023/03/26 05:23:47;;;;;;;37.90;10.15;;;;;;;;;;5085413;28;20140;-60
2023/03/26 05:26:14;;;;;;;43.42;12.48;;;;;;;;;;5085155;28;20057;-58
2023/03/26 05:28:40;;;;;;;42.65;11.45;;;;;;;;;;5083386;28;20437;-58
2023/03/26 05:31:07;;;;;;;40.50;9.90;;;;;;;;;;5069278;28;20507;-58
2023/03/26 05:33:33;;;;;;;36.90;10.90;;;;;;;;;;5064911;28;20530;-58
2023/03/26 05:36:05;;;;;;;34.63;9.55;;;;;;;;;;5067055;28;20053;-58
2023/03/26 05:38:32;;;;;;;44.63;10.73;;;;;;;;;;5062395;28;20482;-58
2023/03/26 05:41:02;;;;;;;31.15;9.10;;;;;;;;;;5064001;28;20118;-58
2023/03/26 05:43:29;;;;;;;42.03;9.55;;;;;;;;;;5080614;28;20052;-58
2023/03/26 05:45:56;;;;;;;41.25;10.63;;;;;;;;;;5085486;28;20055;-58
2023/03/26 05:48:22;;;;;;;50.13;12.40;;;;;;;;;;5064475;28;20061;-59
2023/03/26 05:50:49;;;;;;;38.58;9.73;;;;;;;;;;5061274;28;20058;-60
2023/03/26 05:53:17;;;;;;;44.85;10.40;;;;;;;;;;5064867;28;20053;-59
2023/03/26 05:55:49;;;;;;;31.45;9.23;;;;;;;;;;5084862;28;20502;-59
2023/03/26 05:58:15;;;;;;;45.10;10.10;;;;;;;;;;5085106;28;20076;-59
2023/03/26 06:00:42;;;;;;;46.67;10.77;;;;;;;;;;5073931;28;20064;-58
2023/03/26 06:03:11;;;;;;;51.38;10.55;;;;;;;;;;5062841;28;20053;-59
2023/03/26 06:05:38;;;;;;;42.90;10.10;;;;;;;;;;5063353;28;20569;-58
2023/03/26 06:08:05;;;;;;;42.13;10.95;;;;;;;;;;5080145;28;20053;-60
2023/03/26 06:10:32;;;;;;;43.33;10.55;;;;;;;;;;5069806;28;20084;-61
2023/03/26 06:12:58;;;;;;;38.67;11.25;;;;;;;;;;5085426;28;20056;-61
2023/03/26 06:15:24;;;;;;;38.08;10.50;;;;;;;;;;5076474;28;20565;-60
2023/03/26 06:17:51;;;;;;;45.88;11.30;;;;;;;;;;5068537;28;20103;-59
2023/03/26 06:20:17;;;;;;;45.08;11.63;;;;;;;;;;5068805;28;20845;-59
2023/03/26 06:22:43;;;;;;;45.05;10.40;;;;;;;;;;5063927;28;20067;-59
2023/03/26 06:25:10;;;;;;;38.63;12.02;;;;;;;;;;5049765;28;20092;-59
2023/03/26 06:27:36;;;;;;;48.38;11.38;;;;;;;;;;5063995;28;20061;-59
2023/03/26 06:30:03;;;;;;;40.40;10.43;;;;;;;;;;5064618;28;20053;-59
2023/03/26 06:32:29;;;;;;;34.58;10.93;;;;;;;;;;5077070;28;20048;-59
2023/03/26 06:34:55;;;;;;;41.08;12.40;;;;;;;;;;5081152;28;20143;-60
2023/03/26 06:37:22;;;;;;;42.35;10.40;;;;;;;;;;5079067;28;20037;-59
2023/03/26 06:39:48;;;;;;;45.72;11.80;;;;;;;;;;5066839;28;20064;-59
2023/03/26 06:42:14;;;;;;;42.13;11.95;;;;;;;;;;5076310;28;20040;-59
2023/03/26 06:44:41;;;;;;;36.80;10.13;;;;;;;;;;5088368;28;20088;-59
2023/03/26 06:47:07;;;;;;;41.17;11.10;;;;;;;;;;5088256;28;20063;-59
2023/03/26 06:49:33;;;;;;;50.58;11.45;;;;;;;;;;5070760;28;20512;-60
2023/03/26 06:52:01;;;;;;;36.65;10.40;;;;;;;;;;5074068;28;20506;-58
2023/03/26 06:54:28;;;;;;;46.75;12.55;;;;;;;;;;5076340;28;20081;-60
2023/03/26 06:56:55;;;;;;;40.30;11.93;;;;;;;;;;5080121;28;20122;-59
2023/03/26 06:59:22;;;;;;;46.03;12.10;;;;;;;;;;5056380;28;20054;-61
2023/03/26 07:01:48;;;;;;;41.60;11.40;;;;;;;;;;5072148;28;20808;-59
2023/03/26 07:04:14;;;;;;;40.53;11.85;;;;;;;;;;5074508;28;20053;-59
2023/03/26 07:06:41;;;;;;;31.60;11.43;;;;;;;;;;5066884;28;20048;-61
2023/03/26 07:09:07;;;;;;;48.55;11.60;;;;;;;;;;5067845;28;20055;-61
2023/03/26 07:11:34;;;;;;;47.08;12.07;;;;;;;;;;5065600;28;20431;-59
2023/03/26 07:14:00;;;;;;;41.20;10.93;;;;;;;;;;5066728;28;20045;-60
2023/03/26 07:16:27;;;;;;;37.17;11.23;;;;;;;;;;5085665;28;20140;-60
2023/03/26 07:18:54;;;;;;;38.83;12.98;;;;;;;;;;5088045;28;20052;-59
2023/03/26 07:21:21;;;;;;;46.17;11.32;;;;;;;;;;5087633;28;20037;-59
2023/03/26 07:23:47;;;;;;;51.33;10.68;;;;;;;;;;5087426;28;20102;-58
2023/03/26 07:26:23;;;;;;;46.25;12.25;;;;;;;;;;5082631;28;20063;-58
2023/03/26 07:28:54;;;;;;;42.75;11.10;;;;;;;;;;5066099;28;20132;-59
2023/03/26 07:31:40;;;;;;;45.08;12.15;;;;;;;;;;5047700;28;20061;-58
2023/03/26 07:34:07;;;;;;;47.00;12.80;;;;;;;;;;5081767;28;20049;-58
2023/03/26 07:36:47;;;;;;;32.90;11.43;;;;;;;;;;5073066;28;20052;-59
2023/03/26 07:39:32;;;;;;;45.85;11.75;;;;;;;;;;5067497;28;20491;-60
2023/03/26 07:42:02;;;;;;;42.05;10.98;;;;;;;;;;5072149;28;20087;-59
2023/03/26 07:44:34;;;;;;;33.25;11.52;;;;;;;;;;5084565;28;20143;-59
2023/03/26 07:47:06;;;;;;;43.15;12.82;;;;;;;;;;5054456;28;20052;-58
2023/03/26 07:49:34;;;;;;;32.53;10.75;;;;;;;;;;5070320;28;20565;-60
2023/03/26 07:52:00;;;;;;;37.03;11.65;;;;;;;;;;5067227;28;20114;-60
2023/03/26 07:54:27;;;;;;;43.90;12.45;;;;;;;;;;5066976;28;20057;-60
2023/03/26 07:56:56;;;;;;;50.55;14.95;;;;;;;;;;5066382;28;20056;-60
2023/03/26 07:59:38;;;;;;;38.50;12.07;;;;;;;;;;5065308;28;20049;-59
2023/03/26 08:02:07;;;;;;;36.58;12.48;;;;;;;;;;5072727;28;20531;-59
2023/03/26 08:04:46;;;;;;;40.75;12.55;;;;;;;;;;5063797;28;20053;-59
2023/03/26 08:07:16;;;;;;;35.78;12.18;;;;;;;;;;5066537;28;20526;-59
2023/03/26 08:09:53;;;;;;;34.53;11.95;;;;;;;;;;5066377;28;20430;-61
2023/03/26 08:12:22;;;;;;;41.58;11.57;;;;;;;;;;5069328;28;20045;-58
2023/03/26 08:14:49;;;;;;;34.75;12.00;;;;;;;;;;5086839;28;20514;-59
2023/03/26 08:17:42;;;;;;;46.10;13.15;;;;;;;;;;5085720;28;20135;-60
2023/03/26 08:20:30;;;;;;;35.60;11.07;;;;;;;;;;5051535;28;20137;-58
2023/03/26 08:23:01;;;;;;;43.53;13.13;;;;;;;;;;5065107;28;20106;-59
2023/03/26 08:25:31;;;;;;;46.22;12.27;;;;;;;;;;5078391;28;20084;-59
2023/03/26 08:28:11;;;;;;;43.88;12.48;;;;;;;;;;5082477;28;20140;-59
2023/03/26 08:30:37;;;;;;;47.45;13.52;;;;;;;;;;5067737;28;20535;-56
2023/03/26 08:33:24;;;;;;;41.50;12.77;;;;;;;;;;5063156;28;20140;-60
2023/03/26 08:35:50;;;;;;;40.75;13.45;;;;;;;;;;5063556;28;20168;-60
2023/03/26 08:38:18;;;;;;;53.80;14.55;;;;;;;;;;5065788;28;20084;-59
2023/03/26 08:40:47;;;;;;;51.67;15.93;;;;;;;;;;5065258;28;20049;-59
2023/03/26 08:43:32;;;;;;;38.20;14.68;;;;;;;;;;5066324;28;20052;-60
2023/03/26 08:45:58;;;;;;;38.83;14.23;;;;;;;;;;5066337;28;20915;-59
2023/03/26 08:48:43;;;;;;;40.72;14.30;;;;;;;;;;5065507;28;20060;-59
2023/03/26 08:51:48;;;;;;;42.00;13.33;;;;;;;;;;5065640;28;20064;-60
2023/03/26 08:54:29;;;;;;;43.58;14.25;;;;;;;;;;5042881;28;20100;-60
2023/03/26 08:57:08;;;;;;;44.10;15.63;;;;;;;;;;5042778;28;20053;-60
2023/03/26 08:59:40;;;;;;;39.40;13.95;;;;;;;;;;5041335;28;20056;-59
2023/03/26 09:02:19;;;;;;;32.42;13.05;;;;;;;;;;5042573;28;20111;-59
2023/03/26 09:05:16;;;;;;;34.80;13.40;;;;;;;;;;5042824;28;20041;-61
2023/03/26 09:07:42;;;;;;;28.27;13.40;;;;;;;;;;5041789;28;20080;-59
2023/03/26 09:10:38;;;;;;;36.17;14.00;;;;;;;;;;5041933;28;20049;-57
2023/03/26 09:13:04;;;;;;;27.70;12.53;;;;;;;;;;5030169;28;20145;-60
2023/03/26 09:15:34;;;;;;;39.55;13.13;;;;;;;;;;5043043;28;20125;-60
2023/03/26 09:18:04;;;;;;;40.75;13.60;;;;;;;;;;5042805;28;20603;-60
2023/03/26 09:20:49;;;;;;;36.22;13.95;;;;;;;;;;5038687;28;20512;-59
2023/03/26 09:23:18;;;;;;;29.83;11.77;;;;;;;;;;5042448;28;20576;-59
2023/03/26 09:25:45;;;;;;;28.15;11.68;;;;;;;;;;5041291;28;20373;-59
2023/03/26 09:28:19;;;;;;;34.85;11.10;;;;;;;;;;5043270;28;20049;-58
2023/03/26 09:30:51;;;;;;;27.45;10.35;;;;;;;;;;5044475;28;20112;-60
2023/03/26 09:33:19;;;;;;;34.03;11.45;;;;;;;;;;5043732;28;20049;-59
2023/03/26 09:36:10;;;;;;;26.98;10.80;;;;;;;;;;5044955;28;20041;-59
2023/03/26 09:38:45;;;;;;;22.42;10.30;;;;;;;;;;5048167;28;20144;-58
2023/03/26 09:41:13;;;;;;;25.77;10.30;;;;;;;;;;5043091;28;20416;-59
2023/03/26 09:43:45;;;;;;;24.95;10.45;;;;;;;;;;5044321;28;20837;-59
2023/03/26 09:46:18;;;;;;;27.70;10.52;;;;;;;;;;5040468;28;20046;-58
2023/03/26 09:48:47;;;;;;;29.58;9.73;;;;;;;;;;5045471;28;20546;-60
2023/03/26 09:51:28;;;;;;;22.52;8.98;;;;;;;;;;5043907;28;20057;-59
2023/03/26 09:54:09;;;;;;;30.30;10.75;;;;;;;;;;5047518;28;20230;-60
2023/03/26 09:56:38;;;;;;;31.77;9.57;;;;;;;;;;5036920;28;20535;-60
2023/03/26 09:59:23;;;;;;;21.60;8.73;;;;;;;;;;5038701;28;20641;-58
2023/03/26 10:02:08;;;;;;;19.50;8.90;;;;;;;;;;5040763;28;20512;-59
2023/03/26 10:04:59;;;;;;;18.08;7.43;;;;;;;;;;5044912;28;20038;-59
2023/03/26 10:07:44;;;;;;;21.75;6.65;;;;;;;;;;5043781;28;20535;-60
2023/03/26 10:10:21;;;;;;;22.40;7.13;;;;;;;;;;5049650;28;20049;-60
2023/03/26 10:13:11;;;;;;;14.30;5.72;;;;;;;;;;5045333;28;20065;-59
2023/03/26 10:15:59;;;;;;;18.45;6.45;;;;;;;;;;5023878;28;20050;-59
2023/03/26 10:18:31;;;;;;;22.10;5.93;;;;;;;;;;5025581;28;20152;-59
2023/03/26 10:21:02;;;;;;;15.82;5.53;;;;;;;;;;5024954;28;20559;-58
2023/03/26 10:23:29;;;;;;;15.90;5.47;;;;;;;;;;5024928;28;20060;-59
2023/03/26 10:25:55;;;;;;;19.02;5.03;;;;;;;;;;5024643;28;20064;-60
2023/03/26 10:28:21;;;;;;;15.02;4.68;;;;;;;;;;5025226;28;20097;-60
2023/03/26 10:30:50;;;;;;;19.48;4.72;;;;;;;;;;5007366;28;20050;-59
2023/03/26 10:33:17;;;;;;;17.27;5.80;;;;;;;;;;5012008;28;20061;-59
2023/03/26 10:35:43;;;;;;;15.95;4.60;;;;;;;;;;5026197;28;20500;-60
2023/03/26 10:38:18;;;;;;;23.33;4.75;;;;;;;;;;5023911;28;20141;-59
2023/03/26 10:41:03;;;;;;;13.10;4.75;;;;;;;;;;5008550;28;20069;-60
2023/03/26 10:43:50;;;;;;;11.40;4.07;;;;;;;;;;5025732;28;20141;-60
2023/03/26 10:46:38;;;;;;;16.67;4.30;;;;;;;;;;5027370;28;20045;-60
2023/03/26 10:49:07;;;;;;;13.60;4.45;;;;;;;;;;5015921;28;20049;-60
2023/03/26 10:51:37;;;;;;;16.33;5.38;;;;;;;;;;5025296;28;20050;-61
2023/03/26 10:54:06;;;;;;;14.80;3.78;;;;;;;;;;5045512;28;20049;-60
2023/03/26 10:56:45;;;;;;;15.95;5.70;;;;;;;;;;5057468;28;20057;-61
2023/03/26 10:59:13;;;;;;;16.15;4.28;;;;;;;;;;5046242;28;20056;-60
2023/03/26 11:01:50;;;;;;;17.17;4.40;;;;;;;;;;5085822;28;20060;-59
2023/03/26 11:04:22;;;;;;;14.40;3.42;;;;;;;;;;5057788;28;20053;-60
2023/03/26 11:06:57;;;;;;;15.98;4.07;;;;;;;;;;5047481;28;20085;-59
2023/03/26 11:09:30;;;;;;;9.85;3.78;;;;;;;;;;5065761;28;20099;-59
2023/03/26 11:12:15;;;;;;;14.75;4.00;;;;;;;;;;5088258;28;20074;-59
2023/03/26 11:14:53;;;;;;;10.50;3.60;;;;;;;;;;5082551;28;20056;-59
2023/03/26 11:17:23;;;;;;;15.05;3.88;;;;;;;;;;5065344;28;20064;-59
2023/03/26 11:20:07;;;;;;;18.67;5.32;;;;;;;;;;5067185;28;20495;-62
2023/03/26 11:22:41;;;;;;;18.33;4.65;;;;;;;;;;5065026;28;20052;-60
2023/03/26 11:25:16;;;;;;;9.90;3.85;;;;;;;;;;5074817;28;20133;-60
2023/03/26 11:27:48;;;;;;;22.55;4.18;;;;;;;;;;5065509;28;20093;-62
2023/03/26 11:30:26;;;;;;;15.50;3.95;;;;;;;;;;5067665;28;20075;-60
2023/03/26 11:32:55;;;;;;;14.90;3.88;;;;;;;;;;5066765;28;20530;-61
2023/03/26 11:35:33;;;;;;;17.80;4.32;;;;;;;;;;5051032;28;20065;-61
2023/03/26 11:38:19;;;;;;;20.87;4.00;;;;;;;;;;5057427;28;20100;-61
2023/03/26 11:40:49;;;;;;;16.75;4.40;;;;;;;;;;5066663;28;20049;-61
2023/03/26 11:43:19;;;;;;;14.27;4.10;;;;;;;;;;5056100;28;20060;-61
2023/03/26 11:45:46;;;;;;;14.85;4.43;;;;;;;;;;5063759;28;20654;-60
2023/03/26 11:48:17;;;;;;;18.98;4.80;;;;;;;;;;5057834;28;20128;-60
2023/03/26 11:50:46;;;;;;;17.02;4.38;;;;;;;;;;5087243;28;20057;-61
2023/03/26 11:53:16;;;;;;;15.75;4.15;;;;;;;;;;5087597;28;20476;-60
2023/03/26 11:56:00;;;;;;;16.55;3.72;;;;;;;;;;5074354;28;20054;-60
2023/03/26 11:58:41;;;;;;;10.85;4.40;;;;;;;;;;5084285;28;20079;-62
2023/03/26 12:01:21;;;;;;;9.27;2.47;;;;;;;;;;5069669;28;20095;-61
2023/03/26 12:04:02;;;;;;;20.30;3.33;;;;;;;;;;5066984;28;20184;-60
2023/03/26 12:06:28;;;;;;;9.57;3.28;;;;;;;;;;5067394;28;20057;-61
2023/03/26 12:08:55;;;;;;;16.15;3.55;;;;;;;;;;5048358;28;20032;-60
2023/03/26 12:11:26;;;;;;;9.25;2.75;;;;;;;;;;5084569;28;20639;-60
2023/03/26 12:14:01;;;;;;;20.67;5.07;;;;;;;;;;5070037;28;20052;-61
2023/03/26 12:16:27;;;;;;;14.50;2.97;;;;;;;;;;5058350;28;20492;-61
2023/03/26 12:18:58;;;;;;;11.27;3.38;;;;;;;;;;5053077;28;20149;-61
2023/03/26 12:21:25;;;;;;;17.75;3.03;;;;;;;;;;5046321;28;20041;-59
2023/03/26 12:23:57;;;;;;;9.82;2.80;;;;;;;;;;5056076;28;20118;-60
2023/03/26 12:26:43;;;;;;;18.52;3.08;;;;;;;;;;5062138;28;20127;-61
2023/03/26 12:29:11;;;;;;;21.85;3.70;;;;;;;;;;5064944;28;20504;-60
2023/03/26 12:31:45;;;;;;;20.92;3.22;;;;;;;;;;5067009;28;20057;-61
2023/03/26 12:34:14;;;;;;;10.90;2.50;;;;;;;;;;5065012;28;20142;-60
2023/03/26 12:36:47;;;;;;;15.63;2.92;;;;;;;;;;5077018;28;20075;-60
2023/03/26 12:39:29;;;;;;;6.93;2.30;;;;;;;;;;5079191;28;20045;-60
2023/03/26 12:42:29;;;;;;;10.38;2.47;;;;;;;;;;5065789;28;20049;-60
2023/03/26 12:45:18;;;;;;;9.27;2.60;;;;;;;;;;5066909;28;20504;-60
2023/03/26 12:47:45;;;;;;;10.77;2.15;;;;;;;;;;5082595;28;20053;-60
2023/03/26 12:50:32;;;;;;;18.95;2.85;;;;;;;;;;5086674;28;20079;-60
2023/03/26 12:53:03;;;;;;;15.80;3.08;;;;;;;;;;5064763;28;20059;-60
2023/03/26 12:55:36;;;;;;;9.55;2.47;;;;;;;;;;5066067;28;20060;-60
2023/03/26 12:58:12;;;;;;;17.10;3.15;;;;;;;;;;5073391;28;21056;-59
2023/03/26 13:00:45;;;;;;;13.57;2.40;;;;;;;;;;5076284;28;20064;-60
2023/03/26 13:03:12;;;;;;;13.98;2.03;;;;;;;;;;5066140;28;20053;-59
2023/03/26 13:05:53;;;;;;;17.00;2.17;;;;;;;;;;5063866;28;20880;-60
2023/03/26 13:08:19;;;;;;;13.57;2.17;;;;;;;;;;5058070;28;20515;-60
2023/03/26 13:10:46;;;;;;;41.70;7.22;;;;;;;;;;5055090;28;20494;-60
2023/03/26 13:13:15;;;;;;;11.82;3.03;;;;;;;;;;5057817;28;20592;-60
2023/03/26 13:15:46;;;;;;;14.68;2.53;;;;;;;;;;5065055;28;20044;-60
2023/03/26 13:18:32;;;;;;;14.73;2.83;;;;;;;;;;5066380;28;20482;-60
2023/03/26 13:20:58;;;;;;;11.43;2.90;;;;;;;;;;5071851;28;20132;-60
2023/03/26 13:23:27;;;;;;;12.82;2.92;;;;;;;;;;5066939;28;20053;-61
2023/03/26 13:26:14;;;;;;;14.80;3.17;;;;;;;;;;5066723;28;20526;-60
2023/03/26 13:28:46;;;;;;;13.00;2.85;;;;;;;;;;5037202;28;20064;-60
2023/03/26 13:31:12;;;;;;;12.23;2.53;;;;;;;;;;5055209;28;20053;-60
2023/03/26 13:33:58;;;;;;;11.02;2.60;;;;;;;;;;5064340;28;20049;-60
2023/03/26 13:36:24;;;;;;;14.73;2.63;;;;;;;;;;5060985;28;20060;-61
2023/03/26 13:38:58;;;;;;;8.93;2.17;;;;;;;;;;5068085;28;20053;-60
2023/03/26 13:41:45;;;;;;;9.07;1.77;;;;;;;;;;5065760;28;20049;-61
2023/03/26 13:44:11;;;;;;;12.00;3.83;;;;;;;;;;5045881;28;20057;-61
2023/03/26 13:46:39;;;;;;;9.55;2.28;;;;;;;;;;5058234;28;20049;-61
2023/03/26 13:49:14;;;;;;;8.50;2.38;;;;;;;;;;5041513;28;20057;-60
2023/03/26 13:51:49;;;;;;;7.95;1.95;;;;;;;;;;5048321;28;20048;-59
2023/03/26 13:54:20;;;;;;;9.23;2.23;;;;;;;;;;5047824;28;20057;-58
2023/03/26 13:56:51;;;;;;;12.55;2.30;;;;;;;;;;5045982;28;20053;-59
2023/03/26 13:59:25;;;;;;;11.90;2.55;;;;;;;;;;5063336;28;20052;-59
2023/03/26 14:01:54;;;;;;;12.87;2.53;;;;;;;;;;5044259;28;20050;-60
2023/03/26 14:04:34;;;;;;;5.75;1.73;;;;;;;;;;5056644;28;20295;-60
2023/03/26 14:07:09;;;;;;;6.47;1.65;;;;;;;;;;5044531;28;20148;-59
2023/03/26 14:09:40;;;;;;;11.18;2.15;;;;;;;;;;5046643;28;20519;-59
2023/03/26 14:12:33;;;;;;;11.85;2.08;;;;;;;;;;5043882;28;20049;-59
2023/03/26 14:15:01;;;;;;;8.88;2.13;;;;;;;;;;5043455;28;20057;-59
2023/03/26 14:17:40;;;;;;;5.47;1.83;;;;;;;;;;5045507;28;20587;-61
2023/03/26 14:20:25;;;;;;;7.60;2.33;;;;;;;;;;5061400;28;20836;-59
2023/03/26 14:23:12;;;;;;;9.80;1.55;;;;;;;;;;5039216;28;20567;-61
2023/03/26 14:25:57;;;;;;;3.38;1.95;;;;;;;;;;5047414;28;20518;-60
2023/03/26 14:28:33;;;;;;;14.07;1.75;;;;;;;;;;5070237;28;20049;-60
2023/03/26 14:30:59;;;;;;;8.18;1.90;;;;;;;;;;5050489;28;20511;-61
2023/03/26 14:33:26;;;;;;;9.70;2.55;;;;;;;;;;5064902;28;20053;-60
2023/03/26 14:36:07;;;;;;;17.02;2.00;;;;;;;;;;5057650;28;20060;-61
2023/03/26 14:38:37;;;;;;;12.00;2.17;;;;;;;;;;5057598;28;20065;-61
2023/03/26 14:41:04;;;;;;;7.22;1.55;;;;;;;;;;5054029;28;20148;-61
2023/03/26 14:43:49;;;;;;;8.23;1.80;;;;;;;;;;5050242;28;20054;-60
2023/03/26 14:46:32;;;;;;;4.82;1.45;;;;;;;;;;5042090;28;20080;-59
2023/03/26 14:49:01;;;;;;;9.73;1.88;;;;;;;;;;5058580;28;20132;-60
2023/03/26 14:51:28;;;;;;;8.07;2.08;;;;;;;;;;5049551;28;20061;-60